sensor_id;sensor_type;location;lat;lon;timestamp;pressure;altitude;pressure_sealevel;temperature;humidity
84528;BME280;74768;51.152;6.196;2024-03-08T00:01:39;101046.75;;;2.88;78.63
84528;BME280;74768;51.152;6.196;2024-03-08T00:04:04;101048.50;;;2.88;77.75
84528;BME280;74768;51.152;6.196;2024-03-08T00:06:31;101045.91;;;2.82;77.99
84528;BME280;74768;51.152;6.196;2024-03-08T00:08:56;101048.47;;;2.95;77.39
84528;BME280;74768;51.152;6.196;2024-03-08T00:11:21;101048.53;;;2.80;78.76
84528;BME280;74768;51.152;6.196;2024-03-08T00:13:47;101039.00;;;2.78;79.02
84528;BME280;74768;51.152;6.196;2024-03-08T00:16:12;101040.75;;;2.72;78.20
84528;BME280;74768;51.152;6.196;2024-03-08T00:18:37;101036.41;;;2.71;80.32
84528;BME280;74768;51.152;6.196;2024-03-08T00:21:03;101038.16;;;2.65;79.30
84528;BME280;74768;51.152;6.196;2024-03-08T00:23:28;101027.78;;;2.53;79.31
84528;BME280;74768;51.152;6.196;2024-03-08T00:25:53;101028.69;;;2.47;79.97
84528;BME280;74768;51.152;6.196;2024-03-08T00:28:20;101027.84;;;2.41;80.12
84528;BME280;74768;51.152;6.196;2024-03-08T00:30:45;101031.25;;;2.49;79.13
84528;BME280;74768;51.152;6.196;2024-03-08T00:33:11;101028.72;;;2.40;79.85
84528;BME280;74768;51.152;6.196;2024-03-08T00:35:37;101020.91;;;2.32;80.28
84528;BME280;74768;51.152;6.196;2024-03-08T00:38:02;101016.56;;;2.35;80.86
84528;BME280;74768;51.152;6.196;2024-03-08T00:40:28;101025.25;;;2.28;81.11
84528;BME280;74768;51.152;6.196;2024-03-08T00:42:54;101017.44;;;2.33;79.65
84528;BME280;74768;51.152;6.196;2024-03-08T00:45:19;101018.31;;;2.33;78.87
84528;BME280;74768;51.152;6.196;2024-03-08T00:47:44;101014.78;;;2.44;78.17
84528;BME280;74768;51.152;6.196;2024-03-08T00:50:10;101013.91;;;2.49;78.79
84528;BME280;74768;51.152;6.196;2024-03-08T00:52:37;101008.72;;;2.43;79.11
84528;BME280;74768;51.152;6.196;2024-03-08T00:55:02;101003.56;;;2.32;79.95
84528;BME280;74768;51.152;6.196;2024-03-08T00:57:28;100998.34;;;2.29;79.39
84528;BME280;74768;51.152;6.196;2024-03-08T00:59:53;101000.13;;;2.17;80.33
84528;BME280;74768;51.152;6.196;2024-03-08T01:02:18;101004.47;;;2.18;80.73
84528;BME280;74768;51.152;6.196;2024-03-08T01:04:44;100994.06;;;2.16;81.59
84528;BME280;74768;51.152;6.196;2024-03-08T01:07:10;101001.00;;;2.10;81.72
84528;BME280;74768;51.152;6.196;2024-03-08T01:09:35;100994.09;;;2.03;81.02
84528;BME280;74768;51.152;6.196;2024-03-08T01:12:01;100988.88;;;2.00;82.08
84528;BME280;74768;51.152;6.196;2024-03-08T01:14:26;100982.81;;;1.99;81.98
84528;BME280;74768;51.152;6.196;2024-03-08T01:16:51;100988.03;;;1.94;81.70
84528;BME280;74768;51.152;6.196;2024-03-08T01:19:17;100986.31;;;1.87;81.91
84528;BME280;74768;51.152;6.196;2024-03-08T01:21:42;100981.97;;;1.83;81.40
84528;BME280;74768;51.152;6.196;2024-03-08T01:24:08;100981.06;;;2.03;80.27
84528;BME280;74768;51.152;6.196;2024-03-08T01:26:33;100974.97;;;2.08;79.99
84528;BME280;74768;51.152;6.196;2024-03-08T01:29:02;100974.13;;;2.11;80.85
84528;BME280;74768;51.152;6.196;2024-03-08T01:31:29;100973.22;;;2.13;80.59
84528;BME280;74768;51.152;6.196;2024-03-08T01:33:55;100968.00;;;2.13;80.43
84528;BME280;74768;51.152;6.196;2024-03-08T01:36:20;100971.47;;;2.24;78.30
84528;BME280;74768;51.152;6.196;2024-03-08T01:38:46;100974.97;;;2.19;78.68
84528;BME280;74768;51.152;6.196;2024-03-08T01:41:11;100964.53;;;2.23;78.86
84528;BME280;74768;51.152;6.196;2024-03-08T01:43:37;100968.84;;;2.23;79.91
84528;BME280;74768;51.152;6.196;2024-03-08T01:46:04;100966.25;;;2.26;78.45
84528;BME280;74768;51.152;6.196;2024-03-08T01:48:31;100960.16;;;2.27;77.96
84528;BME280;74768;51.152;6.196;2024-03-08T01:50:57;100959.28;;;2.28;77.77
84528;BME280;74768;51.152;6.196;2024-03-08T01:53:24;100953.25;;;2.15;78.12
84528;BME280;74768;51.152;6.196;2024-03-08T01:55:52;100949.78;;;2.13;79.75
84528;BME280;74768;51.152;6.196;2024-03-08T01:58:19;100953.31;;;2.02;80.11
84528;BME280;74768;51.152;6.196;2024-03-08T02:00:47;100948.94;;;2.07;80.52
84528;BME280;74768;51.152;6.196;2024-03-08T02:03:17;100947.22;;;2.06;80.92
84528;BME280;74768;51.152;6.196;2024-03-08T02:05:43;100938.56;;;2.01;80.30
84528;BME280;74768;51.152;6.196;2024-03-08T02:08:11;100937.72;;;1.88;81.40
84528;BME280;74768;51.152;6.196;2024-03-08T02:10:40;100943.75;;;1.98;79.16
84528;BME280;74768;51.152;6.196;2024-03-08T02:13:07;100937.72;;;1.95;80.93
84528;BME280;74768;51.152;6.196;2024-03-08T02:18:16;100945.53;;;1.77;82.66
84528;BME280;74768;51.152;6.196;2024-03-08T02:20:42;100936.88;;;1.69;81.27
84528;BME280;74768;51.152;6.196;2024-03-08T02:23:08;100928.25;;;1.60;82.31
84528;BME280;74768;51.152;6.196;2024-03-08T02:25:34;100931.69;;;1.54;81.60
84528;BME280;74768;51.152;6.196;2024-03-08T02:27:59;100936.03;;;1.55;81.73
84528;BME280;74768;51.152;6.196;2024-03-08T02:30:25;100930.88;;;1.44;82.91
84528;BME280;74768;51.152;6.196;2024-03-08T02:32:54;100922.16;;;1.54;81.54
84528;BME280;74768;51.152;6.196;2024-03-08T02:35:20;100923.03;;;1.55;82.93
84528;BME280;74768;51.152;6.196;2024-03-08T02:37:45;100920.44;;;1.47;82.73
84528;BME280;74768;51.152;6.196;2024-03-08T02:40:13;100913.50;;;1.46;83.47
84528;BME280;74768;51.152;6.196;2024-03-08T02:42:38;100916.13;;;1.45;82.97
84528;BME280;74768;51.152;6.196;2024-03-08T02:45:04;100912.66;;;1.38;82.81
84528;BME280;74768;51.152;6.196;2024-03-08T02:47:31;100916.13;;;1.28;83.20
84528;BME280;74768;51.152;6.196;2024-03-08T02:49:56;100906.63;;;1.16;84.62
84528;BME280;74768;51.152;6.196;2024-03-08T02:52:21;100907.47;;;1.18;84.63
84528;BME280;74768;51.152;6.196;2024-03-08T02:54:47;100897.91;;;1.17;83.76
84528;BME280;74768;51.152;6.196;2024-03-08T02:57:13;100902.28;;;1.22;83.89
84528;BME280;74768;51.152;6.196;2024-03-08T02:59:40;100898.81;;;1.16;84.18
84528;BME280;74768;51.152;6.196;2024-03-08T03:02:05;100891.00;;;1.10;82.97
84528;BME280;74768;51.152;6.196;2024-03-08T03:04:31;100887.56;;;1.01;85.18
84528;BME280;74768;51.152;6.196;2024-03-08T03:06:58;100890.13;;;0.99;86.46
84528;BME280;74768;51.152;6.196;2024-03-08T03:09:23;100891.88;;;0.94;87.24
84528;BME280;74768;51.152;6.196;2024-03-08T03:11:52;100883.22;;;0.94;86.88
84528;BME280;74768;51.152;6.196;2024-03-08T03:14:18;100893.59;;;1.12;85.63
84528;BME280;74768;51.152;6.196;2024-03-08T03:16:44;100892.72;;;1.10;87.14
84528;BME280;74768;51.152;6.196;2024-03-08T03:19:11;100883.19;;;0.97;85.51
84528;BME280;74768;51.152;6.196;2024-03-08T03:21:36;100878.00;;;0.98;84.48
84528;BME280;74768;51.152;6.196;2024-03-08T03:24:03;100878.88;;;1.02;84.92
84528;BME280;74768;51.152;6.196;2024-03-08T03:26:29;100878.88;;;1.03;84.35
84528;BME280;74768;51.152;6.196;2024-03-08T03:28:56;100868.47;;;0.90;85.29
84528;BME280;74768;51.152;6.196;2024-03-08T03:31:22;100866.72;;;0.89;86.02
84528;BME280;74768;51.152;6.196;2024-03-08T03:33:49;100867.63;;;0.86;85.05
84528;BME280;74768;51.152;6.196;2024-03-08T03:36:17;100864.13;;;0.81;85.17
84528;BME280;74768;51.152;6.196;2024-03-08T03:38:43;100863.28;;;0.65;86.19
84528;BME280;74768;51.152;6.196;2024-03-08T03:41:08;100864.97;;;0.66;87.76
84528;BME280;74768;51.152;6.196;2024-03-08T03:43:37;100862.41;;;0.65;87.83
84528;BME280;74768;51.152;6.196;2024-03-08T03:46:06;100863.25;;;0.59;88.67
84528;BME280;74768;51.152;6.196;2024-03-08T03:48:32;100859.81;;;0.57;87.84
84528;BME280;74768;51.152;6.196;2024-03-08T03:50:57;100863.25;;;0.50;88.67
84528;BME280;74768;51.152;6.196;2024-03-08T03:53:22;100861.50;;;0.46;87.48
84528;BME280;74768;51.152;6.196;2024-03-08T03:55:48;100862.38;;;0.53;86.95
84528;BME280;74768;51.152;6.196;2024-03-08T03:58:13;100865.81;;;0.52;86.44
84528;BME280;74768;51.152;6.196;2024-03-08T04:00:39;100858.91;;;0.48;86.55
84528;BME280;74768;51.152;6.196;2024-03-08T04:03:04;100852.84;;;0.41;87.19
84528;BME280;74768;51.152;6.196;2024-03-08T04:05:30;100854.53;;;0.37;87.43
84528;BME280;74768;51.152;6.196;2024-03-08T04:07:56;100857.16;;;0.33;87.45
84528;BME280;74768;51.152;6.196;2024-03-08T04:10:22;100855.41;;;0.33;87.47
84528;BME280;74768;51.152;6.196;2024-03-08T04:12:47;100853.66;;;0.29;87.10
84528;BME280;74768;51.152;6.196;2024-03-08T04:15:13;100856.25;;;0.26;87.86
84528;BME280;74768;51.152;6.196;2024-03-08T04:17:39;100849.34;;;0.30;87.84
84528;BME280;74768;51.152;6.196;2024-03-08T04:20:04;100845.03;;;0.32;87.03
84528;BME280;74768;51.152;6.196;2024-03-08T04:22:36;100847.63;;;0.29;87.19
84528;BME280;74768;51.152;6.196;2024-03-08T04:25:02;100844.16;;;0.25;86.68
84528;BME280;74768;51.152;6.196;2024-03-08T04:27:27;100842.38;;;0.17;86.84
84528;BME280;74768;51.152;6.196;2024-03-08T04:29:53;100838.91;;;0.10;87.86
84528;BME280;74768;51.152;6.196;2024-03-08T04:32:18;100834.59;;;0.12;87.53
84528;BME280;74768;51.152;6.196;2024-03-08T04:34:43;100837.16;;;0.08;87.60
84528;BME280;74768;51.152;6.196;2024-03-08T04:37:09;100839.75;;;-0.03;89.24
84528;BME280;74768;51.152;6.196;2024-03-08T04:39:38;100840.56;;;-0.07;88.73
84528;BME280;74768;51.152;6.196;2024-03-08T04:42:04;100831.94;;;-0.08;88.62
84528;BME280;74768;51.152;6.196;2024-03-08T04:44:35;100830.22;;;-0.06;88.40
84528;BME280;74768;51.152;6.196;2024-03-08T04:47:01;100831.03;;;-0.14;89.21
84528;BME280;74768;51.152;6.196;2024-03-08T04:49:26;100828.44;;;-0.19;89.31
84528;BME280;74768;51.152;6.196;2024-03-08T04:51:53;100824.97;;;-0.18;89.13
84528;BME280;74768;51.152;6.196;2024-03-08T04:54:18;100824.09;;;-0.21;89.54
84528;BME280;74768;51.152;6.196;2024-03-08T04:56:43;100822.38;;;-0.22;89.67
84528;BME280;74768;51.152;6.196;2024-03-08T04:59:09;100817.19;;;-0.18;88.87
84528;BME280;74768;51.152;6.196;2024-03-08T05:01:34;100817.22;;;-0.15;88.80
84528;BME280;74768;51.152;6.196;2024-03-08T05:04:03;100808.59;;;-0.11;88.41
84528;BME280;74768;51.152;6.196;2024-03-08T05:06:29;100808.59;;;-0.09;88.04
84528;BME280;74768;51.152;6.196;2024-03-08T05:08:55;100806.84;;;-0.10;88.52
84528;BME280;74768;51.152;6.196;2024-03-08T05:11:21;100810.34;;;-0.08;88.81
84528;BME280;74768;51.152;6.196;2024-03-08T05:13:46;100806.84;;;-0.10;88.53
84528;BME280;74768;51.152;6.196;2024-03-08T05:16:11;100803.44;;;0.03;88.63
84528;BME280;74768;51.152;6.196;2024-03-08T05:18:37;100803.44;;;0.03;88.06
84528;BME280;74768;51.152;6.196;2024-03-08T05:21:02;100803.44;;;0.03;88.95
84528;BME280;74768;51.152;6.196;2024-03-08T05:23:29;100794.81;;;0.15;89.06
84528;BME280;74768;51.152;6.196;2024-03-08T05:25:55;100792.22;;;0.18;88.21
84528;BME280;74768;51.152;6.196;2024-03-08T05:28:20;100792.22;;;0.16;89.36
84528;BME280;74768;51.152;6.196;2024-03-08T05:30:46;100790.50;;;0.24;88.63
84528;BME280;74768;51.152;6.196;2024-03-08T05:33:11;100792.25;;;0.27;87.61
84528;BME280;74768;51.152;6.196;2024-03-08T05:35:39;100788.81;;;0.42;86.88
84528;BME280;74768;51.152;6.196;2024-03-08T05:38:05;100784.47;;;0.42;86.08
84528;BME280;74768;51.152;6.196;2024-03-08T05:40:32;100784.47;;;0.37;86.91
84528;BME280;74768;51.152;6.196;2024-03-08T05:42:58;100779.28;;;0.31;87.87
84528;BME280;74768;51.152;6.196;2024-03-08T05:45:24;100779.28;;;0.33;88.42
84528;BME280;74768;51.152;6.196;2024-03-08T05:47:50;100780.13;;;0.32;87.02
84528;BME280;74768;51.152;6.196;2024-03-08T05:50:17;100776.69;;;0.36;87.71
84528;BME280;74768;51.152;6.196;2024-03-08T05:52:42;100775.81;;;0.28;87.48
84528;BME280;74768;51.152;6.196;2024-03-08T05:55:08;100772.34;;;0.39;87.83
84528;BME280;74768;51.152;6.196;2024-03-08T05:57:35;100768.91;;;0.50;87.35
84528;BME280;74768;51.152;6.196;2024-03-08T06:00:03;100768.03;;;0.52;86.33
84528;BME280;74768;51.152;6.196;2024-03-08T06:02:29;100762.00;;;0.64;85.86
84528;BME280;74768;51.152;6.196;2024-03-08T06:04:54;100761.09;;;0.68;86.52
84528;BME280;74768;51.152;6.196;2024-03-08T06:07:20;100763.72;;;0.63;86.16
84528;BME280;74768;51.152;6.196;2024-03-08T06:09:45;100761.13;;;0.72;85.49
84528;BME280;74768;51.152;6.196;2024-03-08T06:12:13;100759.38;;;0.68;86.22
84528;BME280;74768;51.152;6.196;2024-03-08T06:14:44;100759.38;;;0.71;85.25
84528;BME280;74768;51.152;6.196;2024-03-08T06:17:09;100749.00;;;0.70;86.19
84528;BME280;74768;51.152;6.196;2024-03-08T06:19:36;100753.31;;;0.71;85.67
84528;BME280;74768;51.152;6.196;2024-03-08T06:22:01;100752.44;;;0.66;86.57
84528;BME280;74768;51.152;6.196;2024-03-08T06:24:31;100746.38;;;0.67;85.91
84528;BME280;74768;51.152;6.196;2024-03-08T06:26:56;100736.88;;;0.69;85.70
84528;BME280;74768;51.152;6.196;2024-03-08T06:29:21;100742.06;;;0.72;86.88
84528;BME280;74768;51.152;6.196;2024-03-08T06:31:47;100740.31;;;0.83;86.91
84528;BME280;74768;51.152;6.196;2024-03-08T06:34:12;100750.69;;;1.09;85.04
84528;BME280;74768;51.152;6.196;2024-03-08T06:36:37;100743.66;;;1.37;82.80
84528;BME280;74768;51.152;6.196;2024-03-08T06:39:03;100742.72;;;1.47;82.51
84528;BME280;74768;51.152;6.196;2024-03-08T06:41:34;100742.75;;;1.53;83.26
84528;BME280;74768;51.152;6.196;2024-03-08T06:44:00;100735.78;;;1.56;83.20
84528;BME280;74768;51.152;6.196;2024-03-08T06:46:25;100734.00;;;1.66;82.39
84528;BME280;74768;51.152;6.196;2024-03-08T06:48:50;100739.16;;;1.71;82.31
84528;BME280;74768;51.152;6.196;2024-03-08T06:51:15;100731.38;;;1.75;82.18
84528;BME280;74768;51.152;6.196;2024-03-08T06:53:41;100722.66;;;1.82;81.96
84528;BME280;74768;51.152;6.196;2024-03-08T06:56:06;100729.50;;;1.92;81.53
84528;BME280;74768;51.152;6.196;2024-03-08T06:58:33;100729.47;;;2.03;80.46
84528;BME280;74768;51.152;6.196;2024-03-08T07:00:58;100731.97;;;2.17;79.64
84528;BME280;74768;51.152;6.196;2024-03-08T07:03:25;100727.63;;;2.19;81.35
84528;BME280;74768;51.152;6.196;2024-03-08T07:05:52;100724.09;;;2.21;81.08
84528;BME280;74768;51.152;6.196;2024-03-08T07:08:18;100717.06;;;2.34;79.22
84528;BME280;74768;51.152;6.196;2024-03-08T07:10:43;100717.88;;;2.44;79.68
84528;BME280;74768;51.152;6.196;2024-03-08T07:13:10;100719.53;;;2.52;79.02
84528;BME280;74768;51.152;6.196;2024-03-08T07:15:35;100713.34;;;2.64;80.31
84528;BME280;74768;51.152;6.196;2024-03-08T07:18:01;100719.34;;;2.73;78.45
84528;BME280;74768;51.152;6.196;2024-03-08T07:20:27;100713.19;;;2.81;77.93
84528;BME280;74768;51.152;6.196;2024-03-08T07:22:54;100704.34;;;2.94;77.25
84528;BME280;74768;51.152;6.196;2024-03-08T07:25:19;100707.75;;;3.03;77.17
84528;BME280;74768;51.152;6.196;2024-03-08T07:27:47;100704.19;;;3.10;77.67
84528;BME280;74768;51.152;6.196;2024-03-08T07:30:12;100700.63;;;3.18;75.88
84528;BME280;74768;51.152;6.196;2024-03-08T07:32:39;100707.50;;;3.25;75.77
84528;BME280;74768;51.152;6.196;2024-03-08T07:35:05;100696.97;;;3.35;75.40
84528;BME280;74768;51.152;6.196;2024-03-08T07:37:30;100705.56;;;3.42;75.94
84528;BME280;74768;51.152;6.196;2024-03-08T07:39:56;100696.72;;;3.52;76.14
84528;BME280;74768;51.152;6.196;2024-03-08T07:42:23;100699.22;;;3.61;76.04
84528;BME280;74768;51.152;6.196;2024-03-08T07:44:48;100693.09;;;3.65;74.19
84528;BME280;74768;51.152;6.196;2024-03-08T07:47:15;100693.81;;;3.75;73.65
84528;BME280;74768;51.152;6.196;2024-03-08T07:49:42;100696.31;;;3.82;73.94
84528;BME280;74768;51.152;6.196;2024-03-08T07:52:08;100689.22;;;3.90;73.58
84528;BME280;74768;51.152;6.196;2024-03-08T07:54:34;100683.91;;;3.98;73.10
84528;BME280;74768;51.152;6.196;2024-03-08T07:57:00;100675.13;;;4.02;74.32
84528;BME280;74768;51.152;6.196;2024-03-08T07:59:27;100679.34;;;4.12;72.70
84528;BME280;74768;51.152;6.196;2024-03-08T08:01:52;100666.19;;;4.17;72.57
84528;BME280;74768;51.152;6.196;2024-03-08T08:04:17;100664.31;;;4.25;72.32
84528;BME280;74768;51.152;6.196;2024-03-08T08:06:43;100664.22;;;4.31;72.37
84528;BME280;74768;51.152;6.196;2024-03-08T08:09:09;100667.53;;;4.42;71.92
84528;BME280;74768;51.152;6.196;2024-03-08T08:11:41;100661.31;;;4.49;72.17
84528;BME280;74768;51.152;6.196;2024-03-08T08:14:08;100653.41;;;4.52;71.27
84528;BME280;74768;51.152;6.196;2024-03-08T08:16:35;100648.94;;;4.59;71.48
84528;BME280;74768;51.152;6.196;2024-03-08T08:19:02;100648.69;;;4.73;71.30
84528;BME280;74768;51.152;6.196;2024-03-08T08:21:28;100645.13;;;4.77;71.10
84528;BME280;74768;51.152;6.196;2024-03-08T08:23:54;100643.25;;;4.83;72.02
84528;BME280;74768;51.152;6.196;2024-03-08T08:26:19;100636.19;;;4.88;71.28
84528;BME280;74768;51.152;6.196;2024-03-08T08:28:46;100636.03;;;4.96;71.88
84528;BME280;74768;51.152;6.196;2024-03-08T08:31:11;100634.22;;;4.99;70.42
84528;BME280;74768;51.152;6.196;2024-03-08T08:33:38;100620.25;;;5.00;69.87
84528;BME280;74768;51.152;6.196;2024-03-08T08:36:03;100609.75;;;5.03;71.27
84528;BME280;74768;51.152;6.196;2024-03-08T08:38:29;100612.88;;;5.19;70.97
84528;BME280;74768;51.152;6.196;2024-03-08T08:40:54;100610.06;;;5.28;71.06
84528;BME280;74768;51.152;6.196;2024-03-08T08:43:19;100614.31;;;5.34;70.51
84528;BME280;74768;51.152;6.196;2024-03-08T08:45:46;100609.00;;;5.37;69.10
84528;BME280;74768;51.152;6.196;2024-03-08T08:48:13;100607.31;;;5.34;71.80
84528;BME280;74768;51.152;6.196;2024-03-08T08:50:39;100598.41;;;5.43;69.67
84528;BME280;74768;51.152;6.196;2024-03-08T08:53:04;100598.34;;;5.46;69.79
84528;BME280;74768;51.152;6.196;2024-03-08T08:55:32;100600.00;;;5.50;69.35
84528;BME280;74768;51.152;6.196;2024-03-08T08:58:00;100598.22;;;5.52;69.94
84528;BME280;74768;51.152;6.196;2024-03-08T09:00:26;100593.72;;;5.57;69.83
84528;BME280;74768;51.152;6.196;2024-03-08T09:02:52;100598.91;;;5.60;70.24
84528;BME280;74768;51.152;6.196;2024-03-08T09:05:20;100592.66;;;5.66;68.22
84528;BME280;74768;51.152;6.196;2024-03-08T09:07:46;100589.16;;;5.65;68.26
84528;BME280;74768;51.152;6.196;2024-03-08T09:10:12;100593.50;;;5.68;69.46
84528;BME280;74768;51.152;6.196;2024-03-08T09:12:38;100594.97;;;5.78;69.33
84528;BME280;74768;51.152;6.196;2024-03-08T09:15:05;100598.28;;;5.86;68.23
84528;BME280;74768;51.152;6.196;2024-03-08T09:17:30;100579.94;;;5.88;67.62
84528;BME280;74768;51.152;6.196;2024-03-08T09:19:55;100579.06;;;5.89;68.80
84528;BME280;74768;51.152;6.196;2024-03-08T09:22:22;100573.47;;;6.02;66.48
84528;BME280;74768;51.152;6.196;2024-03-08T09:24:48;100577.16;;;5.94;68.33
84528;BME280;74768;51.152;6.196;2024-03-08T09:27:13;100578.84;;;5.98;67.72
84528;BME280;74768;51.152;6.196;2024-03-08T09:29:38;100573.59;;;5.98;68.51
84528;BME280;74768;51.152;6.196;2024-03-08T09:32:04;100559.41;;;6.06;66.60
84528;BME280;74768;51.152;6.196;2024-03-08T09:34:29;100566.97;;;6.17;67.00
84528;BME280;74768;51.152;6.196;2024-03-08T09:36:55;100553.69;;;6.24;66.67
84528;BME280;74768;51.152;6.196;2024-03-08T09:39:20;100540.56;;;6.24;66.64
84528;BME280;74768;51.152;6.196;2024-03-08T09:41:47;100537.22;;;6.19;66.55
84528;BME280;74768;51.152;6.196;2024-03-08T09:44:17;100531.91;;;6.21;66.93
84528;BME280;74768;51.152;6.196;2024-03-08T09:46:45;100531.59;;;6.35;68.03
84528;BME280;74768;51.152;6.196;2024-03-08T09:49:12;100519.03;;;6.46;66.08
84528;BME280;74768;51.152;6.196;2024-03-08T09:51:38;100518.63;;;6.59;66.47
84528;BME280;74768;51.152;6.196;2024-03-08T09:54:05;100516.47;;;6.74;67.07
84528;BME280;74768;51.152;6.196;2024-03-08T09:56:35;100496.25;;;6.79;65.35
84528;BME280;74768;51.152;6.196;2024-03-08T09:59:01;100493.28;;;6.89;65.23
84528;BME280;74768;51.152;6.196;2024-03-08T10:02:05;100491.50;;;6.91;64.47
84528;BME280;74768;51.152;6.196;2024-03-08T10:04:30;100489.84;;;6.87;64.27
84528;BME280;74768;51.152;6.196;2024-03-08T10:06:57;100490.44;;;6.97;66.16
84528;BME280;74768;51.152;6.196;2024-03-08T10:09:27;100478.66;;;7.10;63.24
84528;BME280;74768;51.152;6.196;2024-03-08T10:11:59;100470.97;;;7.04;63.53
84528;BME280;74768;51.152;6.196;2024-03-08T10:14:25;100469.91;;;7.10;64.33
84528;BME280;74768;51.152;6.196;2024-03-08T10:16:52;100470.53;;;7.18;64.22
84528;BME280;74768;51.152;6.196;2024-03-08T10:19:17;100473.78;;;7.26;63.54
84528;BME280;74768;51.152;6.196;2024-03-08T10:21:52;100455.34;;;7.29;62.58
84528;BME280;74768;51.152;6.196;2024-03-08T10:24:22;100470.84;;;7.36;62.67
84528;BME280;74768;51.152;6.196;2024-03-08T10:26:51;100460.34;;;7.36;63.35
84528;BME280;74768;51.152;6.196;2024-03-08T10:29:18;100447.81;;;7.45;62.97
84528;BME280;74768;51.152;6.196;2024-03-08T10:31:44;100450.84;;;7.59;61.84
84528;BME280;74768;51.152;6.196;2024-03-08T10:34:12;100430.78;;;7.56;61.09
84528;BME280;74768;51.152;6.196;2024-03-08T10:36:39;100429.88;;;7.57;62.98
84528;BME280;74768;51.152;6.196;2024-03-08T10:39:14;100427.47;;;7.76;62.86
84528;BME280;74768;51.152;6.196;2024-03-08T10:41:52;100419.19;;;7.88;61.34
84528;BME280;74768;51.152;6.196;2024-03-08T10:44:40;100437.72;;;7.83;60.50
84528;BME280;74768;51.152;6.196;2024-03-08T10:47:20;100427.84;;;7.90;61.40
84528;BME280;74768;51.152;6.196;2024-03-08T10:50:16;100420.59;;;7.97;62.61
84528;BME280;74768;51.152;6.196;2024-03-08T10:52:46;100421.69;;;8.16;60.50
84528;BME280;74768;51.152;6.196;2024-03-08T10:55:15;100412.19;;;8.12;61.73
84528;BME280;74768;51.152;6.196;2024-03-08T10:57:41;100414.75;;;8.13;62.65
84528;BME280;74768;51.152;6.196;2024-03-08T11:00:08;100404.56;;;8.29;60.51
84528;BME280;74768;51.152;6.196;2024-03-08T11:02:37;100397.31;;;8.36;61.17
84528;BME280;74768;51.152;6.196;2024-03-08T11:05:03;100399.38;;;8.51;60.91
84528;BME280;74768;51.152;6.196;2024-03-08T11:07:33;100405.22;;;8.59;60.85
84528;BME280;74768;51.152;6.196;2024-03-08T11:10:02;100394.97;;;8.51;60.82
84528;BME280;74768;51.152;6.196;2024-03-08T11:12:29;100392.41;;;8.50;59.85
84528;BME280;74768;51.152;6.196;2024-03-08T11:15:03;100400.84;;;8.58;59.37
84528;BME280;74768;51.152;6.196;2024-03-08T11:20:11;100378.38;;;8.73;59.73
84528;BME280;74768;51.152;6.196;2024-03-08T11:22:49;100391.03;;;8.85;58.74
84528;BME280;74768;51.152;6.196;2024-03-08T11:28:21;100374.31;;;9.08;58.07
84528;BME280;74768;51.152;6.196;2024-03-08T11:33:24;100351.44;;;9.10;57.93
84528;BME280;74768;51.152;6.196;2024-03-08T11:35:51;100361.69;;;9.16;56.75
84528;BME280;74768;51.152;6.196;2024-03-08T11:38:17;100353.38;;;9.26;56.29
84528;BME280;74768;51.152;6.196;2024-03-08T11:40:46;100347.31;;;9.45;56.79
84528;BME280;74768;51.152;6.196;2024-03-08T11:43:15;100349.44;;;9.57;53.13
84528;BME280;74768;51.152;6.196;2024-03-08T11:45:41;100345.88;;;9.58;52.74
84528;BME280;74768;51.152;6.196;2024-03-08T11:48:06;100338.50;;;9.66;52.31
84528;BME280;74768;51.152;6.196;2024-03-08T11:50:32;100343.56;;;9.70;52.36
84528;BME280;74768;51.152;6.196;2024-03-08T11:53:04;100342.22;;;9.81;52.48
84528;BME280;74768;51.152;6.196;2024-03-08T11:55:31;100331.63;;;9.82;52.05
84528;BME280;74768;51.152;6.196;2024-03-08T11:58:04;100326.34;;;9.82;51.70
84528;BME280;74768;51.152;6.196;2024-03-08T12:00:30;100333.63;;;9.77;51.35
84528;BME280;74768;51.152;6.196;2024-03-08T12:03:04;100322.75;;;9.85;51.78
84528;BME280;74768;51.152;6.196;2024-03-08T12:05:30;100322.06;;;10.00;51.78
84528;BME280;74768;51.152;6.196;2024-03-08T12:07:59;100318.06;;;10.10;51.07
84528;BME280;74768;51.152;6.196;2024-03-08T12:10:24;100313.13;;;10.02;49.03
84528;BME280;74768;51.152;6.196;2024-03-08T12:12:54;100315.00;;;10.00;50.18
84528;BME280;74768;51.152;6.196;2024-03-08T12:15:21;100304.34;;;10.02;50.08
84528;BME280;74768;51.152;6.196;2024-03-08T12:17:49;100307.09;;;10.00;51.15
84528;BME280;74768;51.152;6.196;2024-03-08T12:20:16;100303.59;;;10.00;50.59
84528;BME280;74768;51.152;6.196;2024-03-08T12:22:43;100293.81;;;10.02;49.14
84528;BME280;74768;51.152;6.196;2024-03-08T12:25:11;100288.75;;;9.97;50.99
84528;BME280;74768;51.152;6.196;2024-03-08T12:27:40;100286.63;;;10.05;51.36
84528;BME280;74768;51.152;6.196;2024-03-08T12:30:23;100270.19;;;10.19;52.64
84528;BME280;74768;51.152;6.196;2024-03-08T12:32:52;100274.03;;;10.31;51.37
84528;BME280;74768;51.152;6.196;2024-03-08T12:35:20;100269.22;;;10.22;49.18
84528;BME280;74768;51.152;6.196;2024-03-08T12:37:49;100277.88;;;10.24;51.40
84528;BME280;74768;51.152;6.196;2024-03-08T12:40:17;100275.97;;;10.27;50.24
84528;BME280;74768;51.152;6.196;2024-03-08T12:42:45;100274.50;;;10.22;51.77
84528;BME280;74768;51.152;6.196;2024-03-08T12:45:14;100266.75;;;10.17;51.31
84528;BME280;74768;51.152;6.196;2024-03-08T12:47:40;100264.56;;;10.08;49.90
84528;BME280;74768;51.152;6.196;2024-03-08T12:50:08;100267.09;;;10.09;51.54
84528;BME280;74768;51.152;6.196;2024-03-08T12:52:34;100259.47;;;10.03;51.21
84528;BME280;74768;51.152;6.196;2024-03-08T12:54:59;100242.84;;;10.01;52.96
84528;BME280;74768;51.152;6.196;2024-03-08T12:57:28;100244.88;;;10.15;51.28
84528;BME280;74768;51.152;6.196;2024-03-08T12:59:54;100242.03;;;10.20;50.03
84528;BME280;74768;51.152;6.196;2024-03-08T13:02:19;100229.72;;;10.20;52.12
84528;BME280;74768;51.152;6.196;2024-03-08T13:04:46;100239.28;;;10.23;50.23
84528;BME280;74768;51.152;6.196;2024-03-08T13:07:20;100224.59;;;10.15;49.61
84528;BME280;74768;51.152;6.196;2024-03-08T13:09:46;100228.72;;;10.23;49.52